UAL226 KEWR-KMCO
Flight info
| Callsign | UAL226 |
|---|---|
| Flight time | 2h 10m |
| Altitude | 38000 |
| Route | ELVAE NECCK WHITE Q409 CRPLR Q85 LPERD SNFLD3 |
| Aircraft | A319/M-SDE3FGHIRWY/LB1 |
Departure
| Time | 2026-05-06 01:24 |
|---|---|
| Airport | Newark Liberty International Airport (KEWR) |
Arrival
| Time | 2026-05-06 03:35 |
|---|---|
| Airport | Orlando International Airport (KMCO) |
| Time | Latitude | Longitude | Altitude | Speed | Heading |
|---|---|---|---|---|---|
| 2026-05-06 00:39 | 40.68304 | -74.18410 | 22 ft | 0 kts | 5° |
| 2026-05-06 01:04 | 40.68296 | -74.18411 | 24 ft | 4 kts | 7° |
| 2026-05-06 01:04 | 40.68270 | -74.18418 | 22 ft | 4 kts | 24° |
| 2026-05-06 01:05 | 40.68250 | -74.18437 | 25 ft | 4 kts | 68° |
| 2026-05-06 01:05 | 40.68247 | -74.18451 | 23 ft | 0 kts | 95° |
| 2026-05-06 01:14 | 40.68246 | -74.18430 | 22 ft | 5 kts | 95° |
| 2026-05-06 01:14 | 40.68243 | -74.18378 | 22 ft | 7 kts | 95° |
| 2026-05-06 01:15 | 40.68238 | -74.18301 | 22 ft | 10 kts | 95° |
| 2026-05-06 01:15 | 40.68233 | -74.18193 | 22 ft | 13 kts | 88° |
| 2026-05-06 01:15 | 40.68237 | -74.18065 | 22 ft | 15 kts | 95° |
| 2026-05-06 01:15 | 40.68213 | -74.17933 | 22 ft | 7 kts | 115° |
| 2026-05-06 01:16 | 40.68189 | -74.17869 | 23 ft | 9 kts | 116° |
| 2026-05-06 01:16 | 40.68158 | -74.17784 | 22 ft | 11 kts | 116° |
| 2026-05-06 01:16 | 40.68165 | -74.17711 | 24 ft | 9 kts | 37° |
| 2026-05-06 01:16 | 40.68231 | -74.17667 | 22 ft | 12 kts | 25° |
| 2026-05-06 01:17 | 40.68315 | -74.17614 | 23 ft | 14 kts | 26° |
| 2026-05-06 01:17 | 40.68410 | -74.17553 | 23 ft | 16 kts | 26° |
| 2026-05-06 01:17 | 40.68517 | -74.17485 | 23 ft | 18 kts | 26° |
| 2026-05-06 01:17 | 40.68635 | -74.17410 | 23 ft | 20 kts | 26° |
| 2026-05-06 01:18 | 40.68761 | -74.17330 | 24 ft | 21 kts | 26° |
| 2026-05-06 01:18 | 40.68894 | -74.17244 | 22 ft | 22 kts | 26° |
| 2026-05-06 01:18 | 40.69018 | -74.17166 | 23 ft | 15 kts | 26° |
| 2026-05-06 01:18 | 40.69119 | -74.17102 | 22 ft | 17 kts | 26° |
| 2026-05-06 01:19 | 40.69228 | -74.17032 | 22 ft | 18 kts | 26° |
| 2026-05-06 01:19 | 40.69347 | -74.16956 | 22 ft | 19 kts | 26° |
| 2026-05-06 01:19 | 40.69470 | -74.16878 | 22 ft | 20 kts | 26° |
| 2026-05-06 01:19 | 40.69603 | -74.16793 | 22 ft | 22 kts | 26° |
| 2026-05-06 01:20 | 40.69745 | -74.16703 | 21 ft | 23 kts | 26° |
| 2026-05-06 01:20 | 40.69861 | -74.16629 | 21 ft | 13 kts | 26° |
| 2026-05-06 01:20 | 40.69904 | -74.16595 | 21 ft | 5 kts | 49° |
| 2026-05-06 01:20 | 40.69906 | -74.16571 | 21 ft | 0 kts | 94° |
| 2026-05-06 01:22 | 40.69905 | -74.16551 | 21 ft | 5 kts | 94° |
| 2026-05-06 01:22 | 40.69899 | -74.16472 | 21 ft | 11 kts | 106° |
| 2026-05-06 01:23 | 40.69880 | -74.16456 | 20 ft | 2 kts | 202° |
| 2026-05-06 01:23 | 40.69875 | -74.16460 | 21 ft | 1 kts | 206° |
| 2026-05-06 01:23 | 40.69759 | -74.16534 | 21 ft | 45 kts | 206° |
| 2026-05-06 01:23 | 40.69308 | -74.16820 | 24 ft | 98 kts | 205° |
| 2026-05-06 01:24 | 40.68534 | -74.17300 | 29 ft | 146 kts | 206° |
| 2026-05-06 01:24 | 40.67596 | -74.17886 | 517 ft | 150 kts | 205° |
| 2026-05-06 01:24 | 40.66613 | -74.18458 | 1129 ft | 156 kts | 199° |
| 2026-05-06 01:24 | 40.65512 | -74.18312 | 1845 ft | 170 kts | 170° |
| 2026-05-06 01:25 | 40.64323 | -74.18070 | 2227 ft | 179 kts | 199° |
| 2026-05-06 01:25 | 40.63287 | -74.18956 | 2507 ft | 179 kts | 223° |
| 2026-05-06 01:25 | 40.62387 | -74.20034 | 2515 ft | 173 kts | 222° |
| 2026-05-06 01:25 | 40.61372 | -74.20863 | 2518 ft | 173 kts | 209° |
| 2026-05-06 01:26 | 40.60292 | -74.21579 | 2520 ft | 175 kts | 211° |
| 2026-05-06 01:26 | 40.59212 | -74.22322 | 2521 ft | 175 kts | 212° |
| 2026-05-06 01:26 | 40.58130 | -74.23070 | 2521 ft | 176 kts | 211° |
| 2026-05-06 01:26 | 40.57043 | -74.23820 | 2522 ft | 176 kts | 211° |
| 2026-05-06 01:27 | 40.55971 | -74.24563 | 2518 ft | 174 kts | 211° |
| 2026-05-06 01:27 | 40.54901 | -74.25304 | 2526 ft | 173 kts | 211° |
| 2026-05-06 01:27 | 40.53837 | -74.26041 | 2937 ft | 177 kts | 211° |
| 2026-05-06 01:27 | 40.52715 | -74.26752 | 3691 ft | 184 kts | 203° |
| 2026-05-06 01:28 | 40.51370 | -74.26731 | 4378 ft | 209 kts | 172° |
| 2026-05-06 01:28 | 40.49981 | -74.26024 | 5166 ft | 217 kts | 167° |
| 2026-05-06 01:28 | 40.48563 | -74.25265 | 5796 ft | 224 kts | 167° |
| 2026-05-06 01:28 | 40.47122 | -74.24489 | 5959 ft | 224 kts | 167° |
| 2026-05-06 01:29 | 40.45679 | -74.23710 | 6127 ft | 226 kts | 167° |
| 2026-05-06 01:29 | 40.44224 | -74.22929 | 6901 ft | 226 kts | 166° |
| 2026-05-06 01:29 | 40.42759 | -74.22146 | 7675 ft | 229 kts | 165° |
| 2026-05-06 01:29 | 40.41266 | -74.21351 | 8469 ft | 233 kts | 164° |
| 2026-05-06 01:30 | 40.39745 | -74.20543 | 9292 ft | 238 kts | 163° |
| 2026-05-06 01:30 | 40.38172 | -74.19715 | 9873 ft | 255 kts | 163° |
| 2026-05-06 01:30 | 40.36448 | -74.18816 | 10247 ft | 279 kts | 162° |
| 2026-05-06 01:30 | 40.35217 | -74.18174 | 10472 ft | 295 kts | 162° |
| 2026-05-06 01:31 | 40.33228 | -74.17164 | 10763 ft | 317 kts | 166° |
| 2026-05-06 01:31 | 40.31041 | -74.16608 | 11320 ft | 323 kts | 180° |
| 2026-05-06 01:31 | 40.28799 | -74.16739 | 12081 ft | 322 kts | 193° |
| 2026-05-06 01:31 | 40.26606 | -74.17364 | 12903 ft | 323 kts | 196° |
| 2026-05-06 01:32 | 40.24409 | -74.18020 | 13706 ft | 326 kts | 196° |
| 2026-05-06 01:32 | 40.22192 | -74.18685 | 14434 ft | 328 kts | 196° |
| 2026-05-06 01:32 | 40.19958 | -74.19357 | 15136 ft | 330 kts | 196° |
| 2026-05-06 01:32 | 40.17706 | -74.20033 | 15832 ft | 333 kts | 196° |
| 2026-05-06 01:33 | 40.15435 | -74.20716 | 16511 ft | 336 kts | 197° |
| 2026-05-06 01:33 | 40.13142 | -74.21406 | 17193 ft | 339 kts | 197° |
| 2026-05-06 01:33 | 40.10829 | -74.22100 | 17859 ft | 342 kts | 197° |
| 2026-05-06 01:33 | 40.08491 | -74.22799 | 18500 ft | 346 kts | 197° |
| 2026-05-06 01:34 | 40.06169 | -74.23492 | 19059 ft | 349 kts | 197° |
| 2026-05-06 01:34 | 40.03797 | -74.24198 | 19631 ft | 352 kts | 197° |
| 2026-05-06 01:34 | 40.01441 | -74.25084 | 20194 ft | 352 kts | 205° |
| 2026-05-06 01:34 | 39.99265 | -74.26511 | 20811 ft | 350 kts | 215° |
| 2026-05-06 01:35 | 39.97253 | -74.28390 | 21407 ft | 352 kts | 219° |
| 2026-05-06 01:35 | 39.95276 | -74.30293 | 21977 ft | 355 kts | 219° |
| 2026-05-06 01:35 | 39.93285 | -74.32200 | 22538 ft | 357 kts | 219° |
| 2026-05-06 01:35 | 39.91265 | -74.34123 | 23098 ft | 360 kts | 219° |
| 2026-05-06 01:36 | 39.89256 | -74.36029 | 23650 ft | 363 kts | 219° |
| 2026-05-06 01:36 | 39.87210 | -74.37970 | 24148 ft | 364 kts | 219° |
| 2026-05-06 01:36 | 39.85152 | -74.39920 | 24605 ft | 367 kts | 219° |
| 2026-05-06 01:36 | 39.83074 | -74.41887 | 24979 ft | 371 kts | 219° |
| 2026-05-06 01:37 | 39.81076 | -74.44021 | 25366 ft | 373 kts | 227° |
| 2026-05-06 01:37 | 39.79252 | -74.46435 | 25775 ft | 376 kts | 228° |
| 2026-05-06 01:37 | 39.77421 | -74.48871 | 25931 ft | 377 kts | 228° |
| 2026-05-06 01:37 | 39.75587 | -74.51313 | 25956 ft | 377 kts | 228° |
| 2026-05-06 01:38 | 39.73752 | -74.53753 | 25954 ft | 377 kts | 228° |
| 2026-05-06 01:38 | 39.71914 | -74.56195 | 25958 ft | 377 kts | 228° |
| 2026-05-06 01:38 | 39.70074 | -74.58628 | 25963 ft | 377 kts | 227° |
| 2026-05-06 01:38 | 39.68229 | -74.61067 | 25965 ft | 377 kts | 227° |
| 2026-05-06 01:39 | 39.66389 | -74.63499 | 25968 ft | 377 kts | 227° |
| 2026-05-06 01:39 | 39.64550 | -74.65925 | 25967 ft | 377 kts | 227° |
| 2026-05-06 01:39 | 39.62710 | -74.68352 | 25971 ft | 377 kts | 227° |
| 2026-05-06 01:39 | 39.60897 | -74.70744 | 25972 ft | 377 kts | 227° |
| 2026-05-06 01:40 | 39.59056 | -74.73171 | 25974 ft | 377 kts | 227° |
| 2026-05-06 01:40 | 39.57216 | -74.75592 | 25972 ft | 377 kts | 227° |
| 2026-05-06 01:40 | 39.55372 | -74.78016 | 25974 ft | 377 kts | 227° |
| 2026-05-06 01:40 | 39.53533 | -74.80433 | 25970 ft | 377 kts | 227° |
| 2026-05-06 01:41 | 39.51693 | -74.82854 | 25969 ft | 377 kts | 227° |
| 2026-05-06 01:41 | 39.49852 | -74.85278 | 25967 ft | 377 kts | 227° |
| 2026-05-06 01:41 | 39.48012 | -74.87697 | 25948 ft | 377 kts | 227° |
| 2026-05-06 01:41 | 39.46166 | -74.90115 | 25963 ft | 378 kts | 227° |
| 2026-05-06 01:42 | 39.44314 | -74.92534 | 25963 ft | 378 kts | 227° |
| 2026-05-06 01:42 | 39.42451 | -74.94967 | 26227 ft | 381 kts | 227° |
| 2026-05-06 01:42 | 39.40579 | -74.97410 | 26622 ft | 384 kts | 227° |
| 2026-05-06 01:42 | 39.38690 | -74.99871 | 27013 ft | 387 kts | 227° |
| 2026-05-06 01:43 | 39.36790 | -75.02349 | 27399 ft | 390 kts | 227° |
| 2026-05-06 01:43 | 39.34879 | -75.04845 | 27789 ft | 393 kts | 228° |
| 2026-05-06 01:43 | 39.32946 | -75.07365 | 28222 ft | 396 kts | 228° |
| 2026-05-06 01:43 | 39.31026 | -75.09862 | 28661 ft | 397 kts | 228° |
| 2026-05-06 01:44 | 39.29040 | -75.12431 | 29044 ft | 401 kts | 228° |
| 2026-05-06 01:44 | 39.27070 | -75.14931 | 29388 ft | 405 kts | 227° |
| 2026-05-06 01:44 | 39.25035 | -75.17475 | 29759 ft | 408 kts | 227° |
| 2026-05-06 01:44 | 39.22982 | -75.20029 | 30110 ft | 412 kts | 227° |
| 2026-05-06 01:45 | 39.20911 | -75.22600 | 30424 ft | 414 kts | 227° |
| 2026-05-06 01:45 | 39.18830 | -75.25182 | 30718 ft | 417 kts | 227° |
| 2026-05-06 01:45 | 39.16739 | -75.27780 | 31043 ft | 419 kts | 227° |
| 2026-05-06 01:45 | 39.14637 | -75.30397 | 31361 ft | 421 kts | 228° |
| 2026-05-06 01:46 | 39.12531 | -75.33022 | 31687 ft | 422 kts | 228° |
| 2026-05-06 01:46 | 39.10426 | -75.35645 | 32132 ft | 421 kts | 228° |
| 2026-05-06 01:46 | 39.08319 | -75.38270 | 32541 ft | 420 kts | 228° |
| 2026-05-06 01:46 | 39.06109 | -75.40745 | 32966 ft | 425 kts | 220° |
| 2026-05-06 01:47 | 39.03558 | -75.42708 | 33412 ft | 431 kts | 210° |
| 2026-05-06 01:47 | 39.00726 | -75.44046 | 33894 ft | 437 kts | 200° |
| 2026-05-06 01:47 | 38.97707 | -75.44710 | 34278 ft | 444 kts | 192° |
| 2026-05-06 01:47 | 38.94635 | -75.45122 | 34601 ft | 444 kts | 192° |
| 2026-05-06 01:48 | 38.91554 | -75.45534 | 34909 ft | 446 kts | 192° |
| 2026-05-06 01:48 | 38.88460 | -75.45953 | 35197 ft | 447 kts | 192° |
| 2026-05-06 01:48 | 38.85360 | -75.46378 | 35442 ft | 449 kts | 192° |
| 2026-05-06 01:48 | 38.82245 | -75.46808 | 35711 ft | 451 kts | 193° |
| 2026-05-06 01:49 | 38.79117 | -75.47241 | 35990 ft | 452 kts | 193° |
| 2026-05-06 01:49 | 38.75989 | -75.47678 | 36265 ft | 453 kts | 193° |
| 2026-05-06 01:49 | 38.72852 | -75.48114 | 36534 ft | 454 kts | 193° |
| 2026-05-06 01:49 | 38.69703 | -75.48548 | 36796 ft | 455 kts | 193° |
| 2026-05-06 01:50 | 38.66547 | -75.48976 | 37038 ft | 456 kts | 193° |
| 2026-05-06 01:50 | 38.63388 | -75.49402 | 37268 ft | 458 kts | 193° |
| 2026-05-06 01:50 | 38.60212 | -75.49830 | 37507 ft | 459 kts | 193° |
| 2026-05-06 01:50 | 38.57031 | -75.50259 | 37760 ft | 460 kts | 193° |
| 2026-05-06 01:51 | 38.53974 | -75.50672 | 37956 ft | 461 kts | 194° |
| 2026-05-06 01:51 | 38.50774 | -75.51109 | 38006 ft | 462 kts | 194° |
| 2026-05-06 01:51 | 38.44408 | -75.51971 | 37965 ft | 463 kts | 193° |
| 2026-05-06 01:52 | 38.38002 | -75.52890 | 38005 ft | 460 kts | 198° |
| 2026-05-06 01:52 | 38.32056 | -75.55326 | 38008 ft | 441 kts | 215° |
| 2026-05-06 01:53 | 38.26959 | -75.59447 | 38009 ft | 432 kts | 223° |
| 2026-05-06 01:53 | 38.22003 | -75.63776 | 37993 ft | 432 kts | 223° |
| 2026-05-06 01:54 | 38.17037 | -75.68092 | 37996 ft | 432 kts | 223° |
| 2026-05-06 01:54 | 38.12102 | -75.72370 | 38003 ft | 433 kts | 223° |
| 2026-05-06 01:55 | 38.07128 | -75.76671 | 38004 ft | 433 kts | 223° |
| 2026-05-06 01:55 | 38.02149 | -75.80979 | 37975 ft | 433 kts | 223° |
| 2026-05-06 01:56 | 37.97173 | -75.85289 | 37992 ft | 433 kts | 223° |
| 2026-05-06 01:56 | 37.92183 | -75.89597 | 38006 ft | 434 kts | 223° |
| 2026-05-06 01:57 | 37.87177 | -75.93892 | 38009 ft | 434 kts | 223° |
| 2026-05-06 01:57 | 37.82176 | -75.98189 | 38019 ft | 435 kts | 223° |
| 2026-05-06 01:58 | 37.77167 | -76.02486 | 38001 ft | 435 kts | 223° |
| 2026-05-06 01:58 | 37.72153 | -76.06791 | 38006 ft | 436 kts | 223° |
| 2026-05-06 01:59 | 37.67132 | -76.11086 | 38008 ft | 436 kts | 223° |
| 2026-05-06 01:59 | 37.62100 | -76.15378 | 38005 ft | 436 kts | 224° |
| 2026-05-06 02:00 | 37.57027 | -76.19531 | 38015 ft | 439 kts | 221° |
| 2026-05-06 02:00 | 37.51753 | -76.23483 | 38009 ft | 441 kts | 220° |
| 2026-05-06 02:01 | 37.46456 | -76.27393 | 38025 ft | 441 kts | 220° |
| 2026-05-06 02:01 | 37.41202 | -76.31347 | 38026 ft | 440 kts | 221° |
| 2026-05-06 02:02 | 37.35960 | -76.35334 | 38008 ft | 440 kts | 221° |
| 2026-05-06 02:02 | 37.30709 | -76.39302 | 38008 ft | 441 kts | 221° |
| 2026-05-06 02:03 | 37.25442 | -76.43265 | 38035 ft | 441 kts | 221° |
| 2026-05-06 02:03 | 37.20182 | -76.47223 | 38043 ft | 441 kts | 221° |
| 2026-05-06 02:04 | 37.14919 | -76.51175 | 38012 ft | 441 kts | 221° |
| 2026-05-06 02:04 | 37.09649 | -76.55124 | 38031 ft | 441 kts | 221° |
| 2026-05-06 02:05 | 37.04387 | -76.59075 | 38033 ft | 441 kts | 221° |
| 2026-05-06 02:05 | 36.99149 | -76.62991 | 38038 ft | 441 kts | 221° |
| 2026-05-06 02:06 | 36.93879 | -76.66912 | 38008 ft | 441 kts | 221° |
| 2026-05-06 02:06 | 36.88606 | -76.70842 | 38041 ft | 441 kts | 221° |
| 2026-05-06 02:07 | 36.83334 | -76.74762 | 38052 ft | 441 kts | 221° |
| 2026-05-06 02:07 | 36.78049 | -76.78687 | 38059 ft | 441 kts | 221° |
| 2026-05-06 02:08 | 36.72767 | -76.82605 | 38041 ft | 442 kts | 221° |
| 2026-05-06 02:08 | 36.67485 | -76.86515 | 38046 ft | 442 kts | 221° |
| 2026-05-06 02:09 | 36.62184 | -76.90432 | 38052 ft | 442 kts | 221° |
| 2026-05-06 02:09 | 36.56919 | -76.94308 | 38050 ft | 443 kts | 221° |
| 2026-05-06 02:10 | 36.51610 | -76.98213 | 38028 ft | 443 kts | 221° |
| 2026-05-06 02:10 | 36.46302 | -77.02116 | 38049 ft | 444 kts | 221° |
| 2026-05-06 02:11 | 36.40979 | -77.06021 | 38063 ft | 444 kts | 221° |
| 2026-05-06 02:11 | 36.35654 | -77.09930 | 38073 ft | 445 kts | 221° |
| 2026-05-06 02:12 | 36.30324 | -77.13835 | 38075 ft | 445 kts | 221° |
| 2026-05-06 02:12 | 36.25011 | -77.17719 | 38063 ft | 446 kts | 221° |
| 2026-05-06 02:13 | 36.19665 | -77.21623 | 38068 ft | 446 kts | 221° |
| 2026-05-06 02:13 | 36.14310 | -77.25515 | 38058 ft | 446 kts | 221° |
| 2026-05-06 02:14 | 36.08955 | -77.29399 | 38063 ft | 446 kts | 221° |
| 2026-05-06 02:14 | 36.03707 | -77.33419 | 38045 ft | 436 kts | 229° |
| 2026-05-06 02:15 | 35.98956 | -77.38042 | 38062 ft | 435 kts | 229° |
| 2026-05-06 02:15 | 35.94193 | -77.42661 | 38073 ft | 435 kts | 229° |
| 2026-05-06 02:16 | 35.89421 | -77.47267 | 38081 ft | 436 kts | 229° |
| 2026-05-06 02:16 | 35.84674 | -77.51842 | 38067 ft | 436 kts | 229° |
| 2026-05-06 02:17 | 35.79886 | -77.56443 | 38069 ft | 436 kts | 229° |
| 2026-05-06 02:17 | 35.75101 | -77.61038 | 38066 ft | 436 kts | 229° |
| 2026-05-06 02:18 | 35.70323 | -77.65628 | 38082 ft | 436 kts | 229° |
| 2026-05-06 02:18 | 35.65543 | -77.70213 | 38082 ft | 436 kts | 229° |
| 2026-05-06 02:19 | 35.60757 | -77.74786 | 38048 ft | 435 kts | 229° |
| 2026-05-06 02:19 | 35.55972 | -77.79346 | 38067 ft | 436 kts | 229° |
| 2026-05-06 02:20 | 35.48796 | -77.86198 | 38095 ft | 436 kts | 229° |
| 2026-05-06 02:21 | 35.44002 | -77.90765 | 38098 ft | 436 kts | 228° |
| 2026-05-06 02:21 | 35.39203 | -77.95324 | 38112 ft | 436 kts | 228° |
| 2026-05-06 02:22 | 35.35215 | -77.99105 | 38121 ft | 436 kts | 228° |
| 2026-05-06 02:22 | 35.30419 | -78.03642 | 38133 ft | 435 kts | 228° |
| 2026-05-06 02:23 | 35.25622 | -78.08177 | 38114 ft | 435 kts | 228° |
| 2026-05-06 02:23 | 35.20838 | -78.12695 | 38102 ft | 435 kts | 228° |
| 2026-05-06 02:24 | 35.16048 | -78.17211 | 38076 ft | 435 kts | 228° |
| 2026-05-06 02:24 | 35.11262 | -78.21717 | 38092 ft | 435 kts | 228° |
| 2026-05-06 02:25 | 35.06465 | -78.26231 | 38117 ft | 435 kts | 228° |
| 2026-05-06 02:25 | 35.01666 | -78.30733 | 38123 ft | 435 kts | 228° |
| 2026-05-06 02:26 | 34.96886 | -78.35208 | 38126 ft | 435 kts | 228° |
| 2026-05-06 02:26 | 34.92089 | -78.39701 | 38097 ft | 435 kts | 228° |
| 2026-05-06 02:27 | 34.87271 | -78.44201 | 38099 ft | 436 kts | 228° |
| 2026-05-06 02:27 | 34.82454 | -78.48691 | 38100 ft | 436 kts | 228° |
| 2026-05-06 02:28 | 34.77636 | -78.53183 | 38110 ft | 437 kts | 228° |
| 2026-05-06 02:28 | 34.72809 | -78.57672 | 38124 ft | 437 kts | 228° |
| 2026-05-06 02:29 | 34.67983 | -78.62155 | 38106 ft | 436 kts | 228° |
| 2026-05-06 02:29 | 34.63165 | -78.66632 | 38113 ft | 436 kts | 228° |
| 2026-05-06 02:30 | 34.58333 | -78.71112 | 38108 ft | 436 kts | 228° |
| 2026-05-06 02:30 | 34.53510 | -78.75562 | 38089 ft | 435 kts | 228° |
| 2026-05-06 02:31 | 34.48693 | -78.80009 | 38103 ft | 435 kts | 228° |
| 2026-05-06 02:31 | 34.43865 | -78.84445 | 38075 ft | 436 kts | 227° |
| 2026-05-06 02:32 | 34.38952 | -78.88715 | 38081 ft | 439 kts | 225° |
| 2026-05-06 02:32 | 34.33904 | -78.92893 | 38088 ft | 440 kts | 225° |
| 2026-05-06 02:33 | 34.28850 | -78.97081 | 38096 ft | 439 kts | 225° |
| 2026-05-06 02:33 | 34.27155 | -78.98501 | 38096 ft | 439 kts | 225° |
| 2026-05-06 02:34 | 34.18829 | -79.05519 | 38083 ft | 439 kts | 225° |
| 2026-05-06 02:34 | 34.13823 | -79.09735 | 38090 ft | 439 kts | 225° |
| 2026-05-06 02:35 | 34.08803 | -79.13932 | 38096 ft | 438 kts | 225° |
| 2026-05-06 02:35 | 34.03824 | -79.18086 | 38102 ft | 438 kts | 225° |
| 2026-05-06 02:36 | 33.98808 | -79.22275 | 38093 ft | 438 kts | 225° |
| 2026-05-06 02:36 | 33.93802 | -79.26457 | 38103 ft | 438 kts | 225° |
| 2026-05-06 02:37 | 33.88791 | -79.30634 | 38106 ft | 438 kts | 225° |
| 2026-05-06 02:37 | 33.83781 | -79.34807 | 38107 ft | 438 kts | 225° |
| 2026-05-06 02:38 | 33.78758 | -79.38971 | 38106 ft | 438 kts | 225° |
| 2026-05-06 02:38 | 33.73736 | -79.43134 | 38052 ft | 438 kts | 225° |
| 2026-05-06 02:39 | 33.68717 | -79.47296 | 38083 ft | 438 kts | 225° |
| 2026-05-06 02:39 | 33.63696 | -79.51454 | 38095 ft | 438 kts | 225° |
| 2026-05-06 02:40 | 33.58673 | -79.55604 | 38101 ft | 438 kts | 225° |
| 2026-05-06 02:40 | 33.53688 | -79.59716 | 38106 ft | 438 kts | 225° |
| 2026-05-06 02:41 | 33.48671 | -79.63853 | 38082 ft | 438 kts | 225° |
| 2026-05-06 02:41 | 33.43651 | -79.67982 | 38097 ft | 438 kts | 225° |
| 2026-05-06 02:42 | 33.38622 | -79.72106 | 38106 ft | 438 kts | 225° |
| 2026-05-06 02:42 | 33.33598 | -79.76229 | 38112 ft | 437 kts | 225° |
| 2026-05-06 02:43 | 33.28579 | -79.80345 | 38107 ft | 438 kts | 225° |
| 2026-05-06 02:43 | 33.23558 | -79.84447 | 38112 ft | 437 kts | 225° |
| 2026-05-06 02:44 | 33.18545 | -79.88536 | 38132 ft | 436 kts | 225° |
| 2026-05-06 02:44 | 33.13533 | -79.92616 | 38132 ft | 435 kts | 225° |
| 2026-05-06 02:45 | 33.08535 | -79.96687 | 38127 ft | 435 kts | 225° |
| 2026-05-06 02:45 | 33.03543 | -80.00751 | 38117 ft | 434 kts | 225° |
| 2026-05-06 02:46 | 32.98580 | -80.04779 | 38120 ft | 434 kts | 225° |
| 2026-05-06 02:46 | 32.93590 | -80.08817 | 38120 ft | 434 kts | 225° |
| 2026-05-06 02:47 | 32.88598 | -80.12855 | 38112 ft | 433 kts | 225° |
| 2026-05-06 02:47 | 32.83613 | -80.16884 | 38089 ft | 433 kts | 226° |
| 2026-05-06 02:48 | 32.78633 | -80.20916 | 38097 ft | 433 kts | 226° |
| 2026-05-06 02:48 | 32.73654 | -80.24936 | 38075 ft | 432 kts | 226° |
| 2026-05-06 02:49 | 32.68674 | -80.28949 | 38083 ft | 433 kts | 226° |
| 2026-05-06 02:49 | 32.63676 | -80.32962 | 38085 ft | 433 kts | 226° |
| 2026-05-06 02:50 | 32.58719 | -80.36940 | 38090 ft | 433 kts | 226° |
| 2026-05-06 02:50 | 32.53569 | -80.40758 | 38105 ft | 440 kts | 222° |
| 2026-05-06 02:51 | 32.48197 | -80.44293 | 38082 ft | 442 kts | 221° |
| 2026-05-06 02:51 | 32.42793 | -80.47801 | 38078 ft | 442 kts | 221° |
| 2026-05-06 02:52 | 32.37446 | -80.51367 | 38092 ft | 441 kts | 222° |
| 2026-05-06 02:52 | 32.32126 | -80.54968 | 38063 ft | 440 kts | 222° |
| 2026-05-06 02:53 | 32.26809 | -80.58565 | 38084 ft | 440 kts | 222° |
| 2026-05-06 02:53 | 32.21492 | -80.62139 | 38060 ft | 440 kts | 222° |
| 2026-05-06 02:54 | 32.16168 | -80.65702 | 38106 ft | 440 kts | 222° |
| 2026-05-06 02:54 | 32.10878 | -80.69236 | 38111 ft | 440 kts | 222° |
| 2026-05-06 02:55 | 32.05555 | -80.72795 | 38106 ft | 440 kts | 222° |
| 2026-05-06 02:55 | 32.00220 | -80.76357 | 38075 ft | 440 kts | 222° |
| 2026-05-06 02:56 | 31.94894 | -80.79910 | 38073 ft | 440 kts | 222° |
| 2026-05-06 02:56 | 31.89568 | -80.83456 | 38062 ft | 440 kts | 222° |
| 2026-05-06 02:57 | 31.84237 | -80.87000 | 38066 ft | 440 kts | 222° |
| 2026-05-06 02:57 | 31.78901 | -80.90535 | 38071 ft | 440 kts | 222° |
| 2026-05-06 02:58 | 31.73569 | -80.94072 | 38040 ft | 439 kts | 223° |
| 2026-05-06 02:58 | 31.68242 | -80.97605 | 38056 ft | 439 kts | 223° |
| 2026-05-06 02:59 | 31.62912 | -81.01127 | 38069 ft | 439 kts | 223° |
| 2026-05-06 02:59 | 31.57578 | -81.04628 | 38073 ft | 440 kts | 222° |
| 2026-05-06 03:00 | 31.52194 | -81.07986 | 38077 ft | 442 kts | 220° |
| 2026-05-06 03:00 | 31.46714 | -81.11282 | 38055 ft | 443 kts | 220° |
| 2026-05-06 03:01 | 31.41232 | -81.14595 | 38068 ft | 443 kts | 220° |
| 2026-05-06 03:01 | 31.35768 | -81.17930 | 38082 ft | 444 kts | 220° |
| 2026-05-06 03:02 | 31.30258 | -81.21219 | 38086 ft | 445 kts | 220° |
| 2026-05-06 03:02 | 31.24737 | -81.24479 | 38085 ft | 445 kts | 220° |
| 2026-05-06 03:03 | 31.18993 | -81.27383 | 38029 ft | 465 kts | 208° |
| 2026-05-06 03:03 | 31.15731 | -81.28158 | 37773 ft | 490 kts | 197° |
| 2026-05-06 03:03 | 31.12269 | -81.28301 | 37506 ft | 502 kts | 190° |
| 2026-05-06 03:03 | 31.08773 | -81.28292 | 37239 ft | 502 kts | 189° |
| 2026-05-06 03:04 | 31.05288 | -81.28262 | 36986 ft | 500 kts | 189° |
| 2026-05-06 03:04 | 31.01812 | -81.28230 | 36739 ft | 499 kts | 189° |
| 2026-05-06 03:04 | 30.98345 | -81.28203 | 36486 ft | 498 kts | 189° |
| 2026-05-06 03:04 | 30.94933 | -81.28185 | 36224 ft | 496 kts | 189° |
| 2026-05-06 03:05 | 30.91485 | -81.28173 | 35974 ft | 494 kts | 189° |
| 2026-05-06 03:05 | 30.88057 | -81.28166 | 35736 ft | 492 kts | 189° |
| 2026-05-06 03:05 | 30.84644 | -81.28162 | 35498 ft | 490 kts | 189° |
| 2026-05-06 03:05 | 30.81238 | -81.28161 | 35257 ft | 488 kts | 189° |
| 2026-05-06 03:06 | 30.77849 | -81.28160 | 35027 ft | 486 kts | 189° |
| 2026-05-06 03:06 | 30.74475 | -81.28157 | 34794 ft | 484 kts | 189° |
| 2026-05-06 03:06 | 30.71106 | -81.28144 | 34565 ft | 483 kts | 189° |
| 2026-05-06 03:06 | 30.67757 | -81.28125 | 34338 ft | 481 kts | 189° |
| 2026-05-06 03:07 | 30.64418 | -81.28110 | 34077 ft | 479 kts | 188° |
| 2026-05-06 03:07 | 30.61085 | -81.28098 | 33817 ft | 477 kts | 188° |
| 2026-05-06 03:07 | 30.57761 | -81.28035 | 33557 ft | 478 kts | 186° |
| 2026-05-06 03:07 | 30.54431 | -81.27851 | 33298 ft | 478 kts | 184° |
| 2026-05-06 03:08 | 30.52232 | -81.27677 | 33162 ft | 477 kts | 184° |
| 2026-05-06 03:08 | 30.48924 | -81.27373 | 32846 ft | 476 kts | 183° |
| 2026-05-06 03:08 | 30.45630 | -81.27055 | 32487 ft | 473 kts | 182° |
| 2026-05-06 03:08 | 30.42361 | -81.26753 | 32166 ft | 470 kts | 183° |
| 2026-05-06 03:09 | 30.39110 | -81.26477 | 32065 ft | 468 kts | 183° |
| 2026-05-06 03:09 | 30.32602 | -81.25996 | 32097 ft | 468 kts | 184° |
| 2026-05-06 03:10 | 30.26090 | -81.25544 | 32097 ft | 468 kts | 184° |
| 2026-05-06 03:10 | 30.19621 | -81.25077 | 32100 ft | 469 kts | 184° |
| 2026-05-06 03:11 | 30.13116 | -81.24584 | 32106 ft | 469 kts | 184° |
| 2026-05-06 03:11 | 30.06606 | -81.24084 | 32111 ft | 469 kts | 184° |
| 2026-05-06 03:12 | 30.00094 | -81.23596 | 32109 ft | 468 kts | 184° |
| 2026-05-06 03:12 | 29.96845 | -81.23359 | 31548 ft | 471 kts | 183° |
| 2026-05-06 03:12 | 29.93536 | -81.23124 | 30711 ft | 480 kts | 183° |
| 2026-05-06 03:12 | 29.90201 | -81.22884 | 30125 ft | 480 kts | 182° |
| 2026-05-06 03:13 | 29.86878 | -81.22635 | 29557 ft | 477 kts | 182° |
| 2026-05-06 03:13 | 29.83581 | -81.22379 | 29046 ft | 472 kts | 182° |
| 2026-05-06 03:13 | 29.80319 | -81.22128 | 28542 ft | 467 kts | 182° |
| 2026-05-06 03:13 | 29.77085 | -81.21882 | 28076 ft | 463 kts | 182° |
| 2026-05-06 03:14 | 29.73894 | -81.21642 | 27595 ft | 458 kts | 182° |
| 2026-05-06 03:14 | 29.70731 | -81.21406 | 27143 ft | 453 kts | 182° |
| 2026-05-06 03:14 | 29.67595 | -81.21164 | 26702 ft | 449 kts | 181° |
| 2026-05-06 03:14 | 29.64493 | -81.20907 | 26266 ft | 445 kts | 181° |
| 2026-05-06 03:15 | 29.61414 | -81.20641 | 25841 ft | 441 kts | 181° |
| 2026-05-06 03:15 | 29.58368 | -81.20372 | 25434 ft | 437 kts | 181° |
| 2026-05-06 03:15 | 29.55346 | -81.20103 | 25047 ft | 434 kts | 181° |
| 2026-05-06 03:15 | 29.52354 | -81.19840 | 24644 ft | 430 kts | 181° |
| 2026-05-06 03:16 | 29.49380 | -81.19583 | 24239 ft | 427 kts | 181° |
| 2026-05-06 03:16 | 29.46466 | -81.19331 | 23850 ft | 423 kts | 181° |
| 2026-05-06 03:16 | 29.43546 | -81.19078 | 23415 ft | 419 kts | 181° |
| 2026-05-06 03:16 | 29.40645 | -81.18831 | 22933 ft | 416 kts | 181° |
| 2026-05-06 03:17 | 29.37776 | -81.18586 | 22460 ft | 412 kts | 180° |
| 2026-05-06 03:17 | 29.34929 | -81.18344 | 21977 ft | 408 kts | 180° |
| 2026-05-06 03:17 | 29.32109 | -81.18107 | 21496 ft | 405 kts | 180° |
| 2026-05-06 03:17 | 29.29310 | -81.17871 | 21018 ft | 401 kts | 180° |
| 2026-05-06 03:18 | 29.26533 | -81.17631 | 20534 ft | 398 kts | 180° |
| 2026-05-06 03:18 | 29.23784 | -81.17389 | 20063 ft | 395 kts | 179° |
| 2026-05-06 03:18 | 29.21054 | -81.17146 | 19601 ft | 392 kts | 179° |
| 2026-05-06 03:18 | 29.18367 | -81.16670 | 19159 ft | 392 kts | 168° |
| 2026-05-06 03:19 | 29.15791 | -81.15646 | 18715 ft | 391 kts | 161° |
| 2026-05-06 03:19 | 29.13257 | -81.14535 | 18252 ft | 388 kts | 161° |
| 2026-05-06 03:19 | 29.10751 | -81.13436 | 17761 ft | 385 kts | 161° |
| 2026-05-06 03:19 | 29.08266 | -81.12354 | 17338 ft | 379 kts | 161° |
| 2026-05-06 03:20 | 29.03425 | -81.10345 | 16780 ft | 361 kts | 163° |
| 2026-05-06 03:20 | 29.01062 | -81.09457 | 16506 ft | 354 kts | 164° |
| 2026-05-06 03:20 | 28.98731 | -81.08602 | 16248 ft | 349 kts | 165° |
| 2026-05-06 03:21 | 28.96379 | -81.08015 | 15968 ft | 344 kts | 176° |
| 2026-05-06 03:21 | 28.94006 | -81.07765 | 15609 ft | 341 kts | 178° |
| 2026-05-06 03:21 | 28.91655 | -81.07501 | 15288 ft | 338 kts | 177° |
| 2026-05-06 03:21 | 28.89311 | -81.07317 | 14855 ft | 337 kts | 185° |
| 2026-05-06 03:22 | 28.87016 | -81.07649 | 14501 ft | 329 kts | 197° |
| 2026-05-06 03:22 | 28.84869 | -81.08457 | 14193 ft | 323 kts | 204° |
| 2026-05-06 03:22 | 28.82760 | -81.09336 | 13867 ft | 321 kts | 204° |
| 2026-05-06 03:22 | 28.80664 | -81.10206 | 13535 ft | 319 kts | 203° |
| 2026-05-06 03:23 | 28.78576 | -81.11070 | 13219 ft | 319 kts | 203° |
| 2026-05-06 03:23 | 28.76497 | -81.11932 | 12911 ft | 318 kts | 203° |
| 2026-05-06 03:23 | 28.74421 | -81.12796 | 12594 ft | 317 kts | 203° |
| 2026-05-06 03:23 | 28.72352 | -81.13656 | 12282 ft | 317 kts | 203° |
| 2026-05-06 03:24 | 28.70267 | -81.14476 | 11972 ft | 317 kts | 198° |
| 2026-05-06 03:24 | 28.68104 | -81.15061 | 11430 ft | 322 kts | 195° |
| 2026-05-06 03:24 | 28.65920 | -81.15630 | 11067 ft | 320 kts | 195° |
| 2026-05-06 03:24 | 28.63760 | -81.16187 | 10593 ft | 323 kts | 195° |
| 2026-05-06 03:25 | 28.61587 | -81.16747 | 10277 ft | 319 kts | 195° |
| 2026-05-06 03:25 | 28.59428 | -81.17306 | 9894 ft | 318 kts | 195° |
| 2026-05-06 03:25 | 28.57300 | -81.17856 | 9731 ft | 308 kts | 195° |
| 2026-05-06 03:25 | 28.55245 | -81.18385 | 9610 ft | 298 kts | 194° |
| 2026-05-06 03:26 | 28.53199 | -81.18626 | 9384 ft | 294 kts | 181° |
| 2026-05-06 03:26 | 28.51162 | -81.18636 | 9110 ft | 291 kts | 182° |
| 2026-05-06 03:26 | 28.49148 | -81.18652 | 8842 ft | 288 kts | 182° |
| 2026-05-06 03:26 | 28.47153 | -81.18669 | 8567 ft | 285 kts | 182° |
| 2026-05-06 03:27 | 28.45178 | -81.18687 | 8285 ft | 282 kts | 182° |
| 2026-05-06 03:27 | 28.43227 | -81.18706 | 8013 ft | 279 kts | 182° |
| 2026-05-06 03:27 | 28.41288 | -81.18726 | 7746 ft | 277 kts | 182° |
| 2026-05-06 03:27 | 28.39373 | -81.18743 | 7484 ft | 274 kts | 182° |
| 2026-05-06 03:28 | 28.37477 | -81.18760 | 7213 ft | 271 kts | 182° |
| 2026-05-06 03:28 | 28.35603 | -81.18777 | 6963 ft | 268 kts | 182° |
| 2026-05-06 03:28 | 28.33742 | -81.18792 | 6531 ft | 271 kts | 182° |
| 2026-05-06 03:28 | 28.31802 | -81.18807 | 5802 ft | 285 kts | 182° |
| 2026-05-06 03:29 | 28.29781 | -81.18811 | 5044 ft | 296 kts | 180° |
| 2026-05-06 03:29 | 28.27703 | -81.18807 | 4485 ft | 298 kts | 184° |
| 2026-05-06 03:29 | 28.25803 | -81.19558 | 4189 ft | 281 kts | 218° |
| 2026-05-06 03:29 | 28.24720 | -81.21220 | 4096 ft | 252 kts | 251° |
| 2026-05-06 03:30 | 28.24473 | -81.23112 | 3807 ft | 238 kts | 272° |
| 2026-05-06 03:30 | 28.24807 | -81.24900 | 3328 ft | 234 kts | 293° |
| 2026-05-06 03:30 | 28.25659 | -81.26391 | 3127 ft | 218 kts | 314° |
| 2026-05-06 03:30 | 28.26806 | -81.27413 | 2983 ft | 204 kts | 331° |
| 2026-05-06 03:31 | 28.28092 | -81.27974 | 2735 ft | 192 kts | 349° |
| 2026-05-06 03:31 | 28.29369 | -81.28104 | 2497 ft | 177 kts | 3° |
| 2026-05-06 03:31 | 28.30558 | -81.28118 | 2290 ft | 165 kts | 3° |
| 2026-05-06 03:31 | 28.31660 | -81.28130 | 2091 ft | 150 kts | 4° |
| 2026-05-06 03:32 | 28.32669 | -81.28141 | 1877 ft | 141 kts | 5° |
| 2026-05-06 03:32 | 28.33640 | -81.28151 | 1710 ft | 138 kts | 6° |
| 2026-05-06 03:32 | 28.34594 | -81.28160 | 1533 ft | 136 kts | 6° |
| 2026-05-06 03:32 | 28.35538 | -81.28169 | 1357 ft | 135 kts | 5° |
| 2026-05-06 03:33 | 28.36476 | -81.28179 | 1182 ft | 134 kts | 5° |
| 2026-05-06 03:33 | 28.37406 | -81.28188 | 1009 ft | 133 kts | 6° |
| 2026-05-06 03:33 | 28.38341 | -81.28197 | 830 ft | 135 kts | 3° |
| 2026-05-06 03:33 | 28.39266 | -81.28207 | 660 ft | 132 kts | 2° |
| 2026-05-06 03:34 | 28.40185 | -81.28216 | 482 ft | 131 kts | 2° |
| 2026-05-06 03:34 | 28.41095 | -81.28225 | 314 ft | 130 kts | 3° |
| 2026-05-06 03:34 | 28.42004 | -81.28234 | 137 ft | 130 kts | 2° |
| 2026-05-06 03:34 | 28.42831 | -81.28237 | 104 ft | 99 kts | 0° |
| 2026-05-06 03:35 | 28.43340 | -81.28246 | 101 ft | 49 kts | 358° |
| 2026-05-06 03:35 | 28.43534 | -81.28361 | 103 ft | 9 kts | 229° |
| 2026-05-06 03:35 | 28.43437 | -81.28374 | 101 ft | 19 kts | 181° |
| 2026-05-06 03:35 | 28.43285 | -81.28373 | 98 ft | 24 kts | 178° |
| 2026-05-06 03:36 | 28.43112 | -81.28367 | 100 ft | 26 kts | 178° |
| 2026-05-06 03:36 | 28.42923 | -81.28363 | 101 ft | 29 kts | 180° |
| 2026-05-06 03:36 | 28.42720 | -81.28363 | 106 ft | 29 kts | 180° |
| 2026-05-06 03:36 | 28.42544 | -81.28363 | 108 ft | 13 kts | 186° |
| 2026-05-06 03:37 | 28.42494 | -81.28445 | 107 ft | 15 kts | 251° |
| 2026-05-06 03:37 | 28.42456 | -81.28569 | 105 ft | 18 kts | 250° |
| 2026-05-06 03:37 | 28.42410 | -81.28717 | 104 ft | 22 kts | 250° |
| 2026-05-06 03:37 | 28.42360 | -81.28879 | 108 ft | 23 kts | 250° |
| 2026-05-06 03:38 | 28.42303 | -81.29064 | 108 ft | 26 kts | 252° |
| 2026-05-06 03:38 | 28.42287 | -81.29215 | 105 ft | 10 kts | 285° |
| 2026-05-06 03:38 | 28.42356 | -81.29269 | 105 ft | 14 kts | 315° |
| 2026-05-06 03:38 | 28.42366 | -81.29389 | 103 ft | 17 kts | 269° |
| 2026-05-06 03:39 | 28.42363 | -81.29544 | 99 ft | 22 kts | 269° |
| 2026-05-06 03:39 | 28.42363 | -81.29723 | 102 ft | 23 kts | 270° |
| 2026-05-06 03:39 | 28.42362 | -81.29915 | 104 ft | 25 kts | 269° |
| 2026-05-06 03:39 | 28.42361 | -81.30095 | 104 ft | 11 kts | 278° |
| 2026-05-06 03:40 | 28.42430 | -81.30137 | 103 ft | 14 kts | 356° |
| 2026-05-06 03:40 | 28.42496 | -81.30217 | 103 ft | 12 kts | 298° |
| 2026-05-06 03:40 | 28.42542 | -81.30253 | 102 ft | 8 kts | 17° |
| 2026-05-06 03:40 | 28.42572 | -81.30235 | 103 ft | 1 kts | 27° |
| 2026-05-06 03:41 | 28.42586 | -81.30229 | 103 ft | 3 kts | 22° |
| 2026-05-06 03:41 | 28.42616 | -81.30226 | 103 ft | 6 kts | 359° |
| 2026-05-06 03:41 | 28.42630 | -81.30226 | 103 ft | 2 kts | 1° |
| 2026-05-06 03:41 | 28.42653 | -81.30225 | 103 ft | 4 kts | 0° |
| 2026-05-06 03:42 | 28.42665 | -81.30225 | 103 ft | 0 kts | 0° |
| 2026-05-06 03:47 | 28.42666 | -81.30225 | 103 ft | 0 kts | 358° |